Time;durP1;ratioP1;P1;durP2;ratioP2;P2;SDS_P1;SDS_P2;PMS_P1;PMS_P2;Temp;Humidity;BMP_temperature;BMP_pressure;BME280_temperature;BME280_humidity;BME280_pressure;Samples;Min_cycle;Max_cycle;Signal;HPM_P1;HPM_P2
2022/10/12 00:00:00;;;;;;;25.98;16.00;;;12.00;99.90;;;;;;5011247;28;20037;-72
2022/10/12 00:02:27;;;;;;;26.05;17.27;;;12.00;99.90;;;;;;5028472;28;20131;-72
2022/10/12 00:04:54;;;;;;;25.42;16.50;;;12.00;99.90;;;;;;5024704;28;20467;-72
2022/10/12 00:07:22;;;;;;;30.40;18.55;;;12.00;99.90;;;;;;5023397;28;20474;-72
2022/10/12 00:09:49;;;;;;;29.42;16.73;;;11.90;99.90;;;;;;5024256;28;20052;-72
2022/10/12 00:12:16;;;;;;;26.02;16.77;;;11.90;99.90;;;;;;5027053;28;20116;-72
2022/10/12 00:14:43;;;;;;;28.05;16.63;;;11.90;99.90;;;;;;5024150;28;20045;-72
2022/10/12 00:17:11;;;;;;;26.90;17.17;;;11.90;99.90;;;;;;5028429;28;20061;-72
2022/10/12 00:19:39;;;;;;;29.40;17.92;;;11.80;99.90;;;;;;5028438;28;20388;-72
2022/10/12 00:22:06;;;;;;;28.20;17.00;;;11.90;99.90;;;;;;5024341;28;20034;-72
2022/10/12 00:24:33;;;;;;;23.33;17.10;;;11.80;99.90;;;;;;5028981;28;20073;-72
2022/10/12 00:27:06;;;;;;;28.10;17.45;;;11.80;99.90;;;;;;5030404;28;20068;-73
2022/10/12 00:29:33;;;;;;;26.25;16.58;;;11.80;99.90;;;;;;5027076;28;20423;-72
2022/10/12 00:32:01;;;;;;;27.73;16.92;;;11.70;99.90;;;;;;5027790;28;20440;-72
2022/10/12 00:34:28;;;;;;;29.88;16.80;;;11.70;99.90;;;;;;5027727;28;20120;-74
2022/10/12 00:36:55;;;;;;;33.22;17.52;;;11.80;99.90;;;;;;5012001;28;20480;-74
2022/10/12 00:39:23;;;;;;;29.00;16.50;;;11.70;99.90;;;;;;5025346;28;20432;-73
2022/10/12 00:41:50;;;;;;;27.70;16.98;;;11.80;99.90;;;;;;5021932;28;20069;-72
2022/10/12 00:44:38;;;;;;;27.25;17.15;;;11.70;99.90;;;;;;5028573;28;20128;-73
2022/10/12 00:47:17;;;;;;;30.17;17.67;;;11.70;99.90;;;;;;5015844;28;20053;-72
2022/10/12 00:50:06;;;;;;;24.92;17.10;;;11.70;99.90;;;;;;5026279;28;20364;-71
2022/10/12 00:52:51;;;;;;;22.25;15.70;;;11.70;99.90;;;;;;5027089;28;20049;-72
2022/10/12 00:55:20;;;;;;;31.27;19.83;;;11.60;99.90;;;;;;5029967;28;20042;-72
2022/10/12 00:57:50;;;;;;;34.22;19.38;;;11.60;99.90;;;;;;5021747;28;20065;-72
2022/10/12 01:00:18;;;;;;;29.10;18.02;;;11.60;99.90;;;;;;5019636;28;20464;-70
2022/10/12 01:02:49;;;;;;;33.78;18.42;;;11.50;99.90;;;;;;5016738;28;20096;-70
2022/10/12 01:05:17;;;;;;;30.50;17.48;;;11.60;99.90;;;;;;5018239;28;20047;-71
2022/10/12 01:07:45;;;;;;;27.50;17.27;;;11.60;99.90;;;;;;5021176;28;20054;-71
2022/10/12 01:10:12;;;;;;;30.15;18.33;;;11.60;99.90;;;;;;5021352;28;20433;-72
2022/10/12 01:12:41;;;;;;;26.67;16.83;;;11.60;99.90;;;;;;5021799;28;20468;-71
2022/10/12 01:15:10;;;;;;;26.55;18.33;;;11.60;99.90;;;;;;5029369;28;20049;-72
2022/10/12 01:18:15;;;;;;;32.08;17.80;;;11.60;99.90;;;;;;5020798;28;20132;-71
2022/10/12 01:20:53;;;;;;;23.80;16.58;;;11.60;99.90;;;;;;5010992;28;20128;-73
2022/10/12 01:23:35;;;;;;;24.20;16.08;;;11.60;99.90;;;;;;5027983;28;20084;-73
2022/10/12 01:26:15;;;;;;;24.52;16.48;;;11.60;99.90;;;;;;5023311;28;20042;-71
2022/10/12 01:29:03;;;;;;;29.92;17.30;;;11.60;99.90;;;;;;5017605;28;20072;-73
2022/10/12 01:31:44;;;;;;;27.77;17.83;;;11.60;99.90;;;;;;5026791;28;20132;-73
2022/10/12 01:34:28;;;;;;;31.63;18.27;;;11.50;99.90;;;;;;5033754;28;20052;-73
2022/10/12 01:37:11;;;;;;;29.70;16.90;;;11.50;99.90;;;;;;5041783;28;20050;-73
2022/10/12 01:39:45;;;;;;;28.88;17.30;;;11.50;99.90;;;;;;5039693;28;20053;-72
2022/10/12 01:42:19;;;;;;;30.73;17.25;;;11.40;99.90;;;;;;5042591;28;20528;-73
2022/10/12 01:44:46;;;;;;;27.52;18.00;;;11.40;99.90;;;;;;5036894;28;20052;-73
2022/10/12 01:47:13;;;;;;;25.65;16.58;;;11.40;99.90;;;;;;5035183;28;20061;-73
2022/10/12 01:49:41;;;;;;;29.35;17.48;;;11.30;99.90;;;;;;5049742;28;20099;-74
2022/10/12 01:52:24;;;;;;;29.23;16.67;;;11.30;99.90;;;;;;5032703;28;20091;-73
2022/10/12 01:55:00;;;;;;;24.98;16.00;;;11.30;99.90;;;;;;5035925;28;20049;-73
2022/10/12 01:58:12;;;;;;;28.55;17.55;;;11.20;99.90;;;;;;5037210;28;20060;-72
2022/10/12 02:00:54;;;;;;;30.38;17.90;;;11.10;99.90;;;;;;5011748;28;20080;-73
2022/10/12 02:03:43;;;;;;;30.13;16.98;;;11.10;99.90;;;;;;5026618;28;20037;-73
2022/10/12 02:06:17;;;;;;;26.90;16.75;;;11.00;99.90;;;;;;5028838;28;20512;-73
2022/10/12 02:09:10;;;;;;;30.63;19.20;;;10.90;99.90;;;;;;5029318;28;20047;-72
2022/10/12 02:11:40;;;;;;;31.98;19.05;;;10.80;99.90;;;;;;5032976;28;20482;-73
2022/10/12 02:14:18;;;;;;;25.35;16.80;;;10.70;99.90;;;;;;5006404;28;20060;-73
2022/10/12 02:16:50;;;;;;;26.90;17.75;;;10.70;99.90;;;;;;5019144;28;20497;-73
2022/10/12 02:19:23;;;;;;;30.50;17.88;;;10.60;99.90;;;;;;5025437;28;20042;-73
2022/10/12 02:21:55;;;;;;;31.23;18.60;;;10.50;99.90;;;;;;5011035;28;20080;-72
2022/10/12 02:24:23;;;;;;;27.48;18.17;;;10.50;99.90;;;;;;5030004;28;20047;-73
2022/10/12 02:26:53;;;;;;;30.45;19.63;;;10.50;99.90;;;;;;5025042;28;20077;-73
2022/10/12 02:29:24;;;;;;;29.30;17.50;;;10.40;99.90;;;;;;5012025;28;20516;-73
2022/10/12 02:32:12;;;;;;;28.00;18.48;;;10.40;99.90;;;;;;5031366;28;20041;-73
2022/10/12 02:34:49;;;;;;;28.42;18.65;;;10.30;99.90;;;;;;5040844;28;20057;-72
2022/10/12 02:37:38;;;;;;;28.27;17.63;;;10.30;99.90;;;;;;5029512;28;20071;-72
2022/10/12 02:40:17;;;;;;;26.45;17.35;;;10.30;99.90;;;;;;5040883;28;20384;-73
2022/10/12 02:42:57;;;;;;;29.10;18.52;;;10.20;99.90;;;;;;5030429;28;20037;-72
2022/10/12 02:45:41;;;;;;;30.60;18.27;;;10.10;99.90;;;;;;5025607;28;20111;-73
2022/10/12 02:48:13;;;;;;;32.08;18.70;;;10.10;99.90;;;;;;5030902;28;20452;-73
2022/10/12 02:50:42;;;;;;;34.53;20.75;;;10.10;99.90;;;;;;5031200;28;20056;-73
2022/10/12 02:53:11;;;;;;;35.90;19.60;;;10.00;99.90;;;;;;5040349;28;20084;-73
2022/10/12 02:55:55;;;;;;;38.00;20.13;;;10.00;99.90;;;;;;5031514;28;20107;-72
2022/10/12 02:58:22;;;;;;;32.03;18.15;;;10.00;99.90;;;;;;5024134;28;20037;-73
2022/10/12 03:00:49;;;;;;;33.92;19.10;;;9.90;99.90;;;;;;5031645;28;20042;-73
2022/10/12 03:03:17;;;;;;;29.40;18.45;;;9.90;99.90;;;;;;5029728;28;20045;-72
2022/10/12 03:05:44;;;;;;;37.08;21.90;;;9.80;99.90;;;;;;5025563;28;20043;-73
2022/10/12 03:08:12;;;;;;;37.33;22.17;;;9.80;99.90;;;;;;5010073;28;20076;-73
2022/10/12 03:10:39;;;;;;;32.92;19.50;;;9.80;99.90;;;;;;5027830;28;20045;-73
2022/10/12 03:13:06;;;;;;;31.70;20.27;;;9.80;99.90;;;;;;5031823;28;20443;-73
2022/10/12 03:15:34;;;;;;;32.83;18.92;;;9.70;99.90;;;;;;5029819;28;20067;-72
2022/10/12 03:18:01;;;;;;;30.58;19.13;;;9.70;99.90;;;;;;5028826;28;20120;-72
2022/10/12 03:20:28;;;;;;;28.65;18.60;;;9.70;99.90;;;;;;5031535;28;20420;-73
2022/10/12 03:22:56;;;;;;;30.83;18.23;;;9.60;99.90;;;;;;4995132;28;20042;-72
2022/10/12 03:25:23;;;;;;;30.10;18.85;;;9.60;99.90;;;;;;5031994;28;20049;-73
2022/10/12 03:27:50;;;;;;;32.92;19.33;;;9.60;99.90;;;;;;5032602;28;20077;-72
2022/10/12 03:30:18;;;;;;;31.55;18.02;;;9.50;99.90;;;;;;5030877;28;20046;-72
2022/10/12 03:32:45;;;;;;;32.25;19.50;;;9.50;99.90;;;;;;5026434;28;20092;-72
2022/10/12 03:35:13;;;;;;;26.73;17.45;;;9.50;99.90;;;;;;5030940;28;20042;-71
2022/10/12 03:37:40;;;;;;;34.75;18.83;;;9.40;99.90;;;;;;5026932;28;20053;-72
2022/10/12 03:40:08;;;;;;;31.50;18.05;;;9.40;99.90;;;;;;5030980;28;20046;-72
2022/10/12 03:42:36;;;;;;;31.02;18.55;;;9.40;99.90;;;;;;5030886;28;20055;-72
2022/10/12 03:45:03;;;;;;;29.85;17.92;;;9.30;99.90;;;;;;5028069;28;20129;-71
2022/10/12 03:47:31;;;;;;;29.15;17.95;;;9.30;99.90;;;;;;5026264;28;20408;-71
2022/10/12 03:49:58;;;;;;;28.33;17.55;;;9.20;99.90;;;;;;5022423;28;20152;-71
2022/10/12 03:52:25;;;;;;;27.70;16.83;;;9.20;99.90;;;;;;5027635;28;20045;-71
2022/10/12 03:54:53;;;;;;;27.90;15.98;;;9.20;99.90;;;;;;5028079;28;20567;-73
2022/10/12 03:57:20;;;;;;;27.38;17.35;;;9.10;99.90;;;;;;5025511;28;20061;-71
2022/10/12 03:59:47;;;;;;;23.83;16.73;;;9.00;99.90;;;;;;5028971;28;20121;-72
2022/10/12 04:02:15;;;;;;;29.30;17.73;;;9.00;99.90;;;;;;5025456;28;20443;-72
2022/10/12 04:04:43;;;;;;;29.85;17.90;;;9.00;99.90;;;;;;5029275;28;20107;-72
2022/10/12 04:07:10;;;;;;;25.35;16.60;;;9.00;99.90;;;;;;5025461;28;20357;-72
2022/10/12 04:09:38;;;;;;;26.73;16.90;;;9.00;99.90;;;;;;5031032;28;20408;-72
2022/10/12 04:12:05;;;;;;;28.45;16.52;;;8.90;99.90;;;;;;5024071;28;20053;-72
2022/10/12 04:14:32;;;;;;;30.73;17.48;;;8.90;99.90;;;;;;5029523;28;20073;-72
2022/10/12 04:17:00;;;;;;;30.42;18.08;;;8.90;99.90;;;;;;5030397;28;20075;-72
2022/10/12 04:19:27;;;;;;;34.47;20.48;;;8.90;99.90;;;;;;5028032;28;20029;-72
2022/10/12 04:21:54;;;;;;;34.83;22.38;;;8.90;99.90;;;;;;5024886;28;20050;-73
2022/10/12 04:24:21;;;;;;;48.30;23.42;;;8.80;99.90;;;;;;5024561;28;20623;-72
2022/10/12 04:26:49;;;;;;;41.55;20.80;;;8.80;99.90;;;;;;5030626;28;20044;-72
2022/10/12 04:29:16;;;;;;;31.58;20.17;;;8.80;99.90;;;;;;5029661;28;20135;-72
2022/10/12 04:31:43;;;;;;;44.50;22.70;;;8.70;99.90;;;;;;5023344;28;20046;-74
2022/10/12 04:34:11;;;;;;;44.13;23.15;;;8.80;99.90;;;;;;5024291;28;20046;-72
2022/10/12 04:36:38;;;;;;;54.58;25.92;;;8.70;99.90;;;;;;5025527;28;20091;-72
2022/10/12 04:39:05;;;;;;;48.13;25.00;;;8.70;99.90;;;;;;5029830;28;20056;-72
2022/10/12 04:41:33;;;;;;;47.72;24.25;;;8.70;99.90;;;;;;5030339;28;20042;-72
2022/10/12 04:44:00;;;;;;;46.30;24.95;;;8.70;99.90;;;;;;5009660;28;20197;-72
2022/10/12 04:46:28;;;;;;;43.85;22.15;;;8.70;99.90;;;;;;5011803;28;20037;-72
2022/10/12 04:48:55;;;;;;;38.05;21.98;;;8.70;99.90;;;;;;5009637;28;20049;-72
2022/10/12 04:51:22;;;;;;;39.42;21.23;;;8.70;99.90;;;;;;5024395;28;20480;-72
2022/10/12 04:53:50;;;;;;;37.13;20.60;;;8.70;99.90;;;;;;5028569;28;20498;-73
2022/10/12 04:56:18;;;;;;;35.53;21.20;;;8.70;99.90;;;;;;5028248;28;20515;-72
2022/10/12 04:58:45;;;;;;;31.73;19.50;;;8.60;99.90;;;;;;5011843;28;20057;-73
2022/10/12 05:01:12;;;;;;;41.15;21.45;;;8.60;99.90;;;;;;5023477;28;20514;-73
2022/10/12 05:03:40;;;;;;;36.80;20.80;;;8.70;99.90;;;;;;5028058;28;20793;-73
2022/10/12 05:06:08;;;;;;;37.33;21.73;;;8.70;99.90;;;;;;5017303;28;20138;-73
2022/10/12 05:08:35;;;;;;;37.22;22.00;;;8.70;99.90;;;;;;5027269;28;20100;-73
2022/10/12 05:11:03;;;;;;;44.17;22.17;;;8.80;99.90;;;;;;5025168;28;20404;-73
2022/10/12 05:13:30;;;;;;;36.45;21.52;;;8.90;99.90;;;;;;5010846;28;20056;-73
2022/10/12 05:15:57;;;;;;;41.55;21.60;;;9.00;99.90;;;;;;5021441;28;20419;-73
2022/10/12 05:18:25;;;;;;;38.75;23.65;;;9.10;99.90;;;;;;5028517;28;20045;-74
2022/10/12 05:20:52;;;;;;;39.58;22.48;;;9.20;99.90;;;;;;5014657;28;20389;-72
2022/10/12 05:23:23;;;;;;;35.60;22.17;;;9.20;99.90;;;;;;5019498;28;20128;-72
2022/10/12 05:25:52;;;;;;;34.47;20.75;;;9.30;99.90;;;;;;5029872;28;20060;-72
2022/10/12 05:28:20;;;;;;;33.95;19.67;;;9.40;99.90;;;;;;5023000;28;20475;-72
2022/10/12 05:30:51;;;;;;;29.45;19.20;;;9.50;99.90;;;;;;5016270;28;20425;-72
2022/10/12 05:33:19;;;;;;;31.92;20.98;;;9.60;99.90;;;;;;5030475;28;20049;-72
2022/10/12 05:35:49;;;;;;;32.78;19.13;;;9.70;99.90;;;;;;5035706;28;20498;-72
2022/10/12 05:38:22;;;;;;;34.45;19.95;;;9.80;99.90;;;;;;5053762;28;20482;-72
2022/10/12 05:40:49;;;;;;;34.72;21.02;;;9.80;99.90;;;;;;5024634;28;20036;-73
2022/10/12 05:43:16;;;;;;;30.45;19.92;;;9.90;99.90;;;;;;5017678;28;20064;-73
2022/10/12 05:45:44;;;;;;;34.70;20.98;;;10.00;99.90;;;;;;5015072;28;20516;-73
2022/10/12 05:48:11;;;;;;;33.50;20.45;;;10.00;99.90;;;;;;5015145;28;20048;-73
2022/10/12 05:50:39;;;;;;;30.08;18.30;;;10.10;99.90;;;;;;5024192;28;20053;-73
2022/10/12 05:53:06;;;;;;;25.10;17.00;;;10.20;99.90;;;;;;5031970;28;20068;-73
2022/10/12 05:55:33;;;;;;;27.38;15.90;;;10.20;99.90;;;;;;5026763;28;20523;-73
2022/10/12 05:58:00;;;;;;;26.83;15.13;;;10.20;99.90;;;;;;5025880;28;20411;-72
2022/10/12 06:00:27;;;;;;;27.70;15.48;;;10.20;99.90;;;;;;5024468;28;20527;-73
2022/10/12 06:02:55;;;;;;;24.23;14.55;;;10.20;99.90;;;;;;5022566;28;20096;-73
2022/10/12 06:05:23;;;;;;;23.42;14.70;;;10.20;99.90;;;;;;5025686;28;20120;-73
2022/10/12 06:07:51;;;;;;;26.20;14.43;;;10.30;99.90;;;;;;5024905;28;20042;-73
2022/10/12 06:10:18;;;;;;;21.88;13.55;;;10.20;99.90;;;;;;5022155;28;20052;-71
2022/10/12 06:12:45;;;;;;;21.85;13.63;;;10.20;99.90;;;;;;5002662;28;20053;-71
2022/10/12 06:15:13;;;;;;;25.42;15.07;;;10.30;99.90;;;;;;5021435;28;20416;-72
2022/10/12 06:17:40;;;;;;;21.52;14.10;;;10.40;99.90;;;;;;5015337;28;20476;-73
2022/10/12 06:20:08;;;;;;;24.23;14.25;;;10.40;99.90;;;;;;4996889;28;20114;-72
2022/10/12 06:22:35;;;;;;;23.80;14.32;;;10.40;99.90;;;;;;5023291;28;20049;-72
2022/10/12 06:25:03;;;;;;;21.52;13.43;;;10.40;99.90;;;;;;5032411;28;20106;-72
2022/10/12 06:27:30;;;;;;;22.98;13.98;;;10.40;99.90;;;;;;5022773;28;20240;-73
2022/10/12 06:29:58;;;;;;;23.15;13.88;;;10.40;99.90;;;;;;5023886;28;20049;-73
2022/10/12 06:32:25;;;;;;;21.58;14.55;;;10.40;99.90;;;;;;5032036;28;20053;-73
2022/10/12 06:34:52;;;;;;;22.92;13.55;;;10.30;99.90;;;;;;5033223;28;20475;-73
2022/10/12 06:37:20;;;;;;;22.40;15.18;;;10.40;99.90;;;;;;5006985;28;20050;-73
2022/10/12 06:40:07;;;;;;;21.85;15.30;;;10.40;99.90;;;;;;5019472;28;20034;-73
2022/10/12 06:42:35;;;;;;;34.30;15.18;;;10.50;99.90;;;;;;5012527;28;20524;-72
2022/10/12 06:45:05;;;;;;;27.77;14.82;;;10.60;99.90;;;;;;5028660;28;20045;-73
2022/10/12 06:47:32;;;;;;;27.65;15.77;;;10.60;99.90;;;;;;5030540;28;20391;-71
2022/10/12 06:49:59;;;;;;;23.85;14.27;;;10.50;99.90;;;;;;5025530;28;20057;-73
2022/10/12 06:52:27;;;;;;;25.73;16.83;;;10.60;99.90;;;;;;5027072;28;20507;-73
2022/10/12 06:54:54;;;;;;;26.33;14.25;;;10.70;99.90;;;;;;5027727;28;20053;-73
2022/10/12 06:57:21;;;;;;;27.33;15.93;;;10.80;99.90;;;;;;5026818;28;20061;-73
2022/10/12 06:59:48;;;;;;;30.38;18.05;;;11.00;99.90;;;;;;5020823;28;20415;-74
2022/10/12 07:02:16;;;;;;;27.50;17.33;;;11.10;99.90;;;;;;5020294;28;20492;-73
2022/10/12 07:04:47;;;;;;;27.13;15.98;;;11.20;99.90;;;;;;5029510;28;20049;-72
2022/10/12 07:07:15;;;;;;;25.13;16.30;;;11.40;99.90;;;;;;5022762;28;20046;-73
2022/10/12 07:09:42;;;;;;;27.67;15.48;;;11.40;99.90;;;;;;5007951;28;20595;-72
2022/10/12 07:12:10;;;;;;;23.23;15.90;;;11.60;99.90;;;;;;5024656;28;20046;-72
2022/10/12 07:14:37;;;;;;;26.17;15.48;;;11.60;99.90;;;;;;5027133;28;20063;-72
2022/10/12 07:17:04;;;;;;;21.67;14.95;;;11.70;99.90;;;;;;5021234;28;20352;-73
2022/10/12 07:19:32;;;;;;;23.73;15.10;;;11.80;99.90;;;;;;5019209;28;20491;-73
2022/10/12 07:22:00;;;;;;;25.02;14.55;;;11.80;99.90;;;;;;5022282;28;20586;-73
2022/10/12 07:24:35;;;;;;;22.83;14.40;;;12.00;99.90;;;;;;5023380;28;20040;-73
2022/10/12 07:27:06;;;;;;;27.65;13.80;;;12.20;99.90;;;;;;5014554;28;20038;-73
2022/10/12 07:29:34;;;;;;;29.33;15.27;;;12.30;99.90;;;;;;5027917;28;20124;-73
2022/10/12 07:32:02;;;;;;;24.77;14.38;;;12.40;99.90;;;;;;5009997;28;20420;-72
2022/10/12 07:34:29;;;;;;;24.73;14.25;;;12.50;99.90;;;;;;4998929;28;20050;-73
2022/10/12 07:36:57;;;;;;;24.90;14.48;;;12.60;99.90;;;;;;5025806;28;20045;-74
2022/10/12 07:39:26;;;;;;;26.63;13.70;;;12.70;99.90;;;;;;5014338;28;20441;-72
2022/10/12 07:41:54;;;;;;;19.33;13.90;;;12.90;99.90;;;;;;4995791;28;20080;-73
2022/10/12 07:44:23;;;;;;;24.20;13.45;;;13.10;99.90;;;;;;5013946;28;20096;-72
2022/10/12 07:46:50;;;;;;;22.75;13.80;;;13.20;99.90;;;;;;5017565;28;20516;-73
2022/10/12 07:49:18;;;;;;;25.33;14.68;;;13.30;99.90;;;;;;5016348;28;20066;-73
2022/10/12 07:51:46;;;;;;;24.42;16.38;;;13.30;99.90;;;;;;5015324;28;20492;-72
2022/10/12 07:54:14;;;;;;;26.80;13.57;;;13.30;99.90;;;;;;5021138;28;20495;-73
2022/10/12 07:56:47;;;;;;;22.13;14.23;;;13.40;99.90;;;;;;5016625;28;20054;-73
2022/10/12 07:59:15;;;;;;;21.90;13.50;;;13.40;99.90;;;;;;5013668;28;20052;-72
2022/10/12 08:01:42;;;;;;;19.30;13.77;;;13.50;99.90;;;;;;5016648;28;20049;-72
2022/10/12 08:04:09;;;;;;;26.27;14.32;;;13.60;99.90;;;;;;5014243;28;20057;-72
2022/10/12 08:06:37;;;;;;;23.50;15.63;;;13.60;99.90;;;;;;5027658;28;20051;-72
2022/10/12 08:09:04;;;;;;;26.17;13.98;;;13.70;99.90;;;;;;5030928;28;20492;-73
2022/10/12 08:11:36;;;;;;;28.52;17.20;;;13.80;99.90;;;;;;5023776;28;20042;-73
2022/10/12 08:14:03;;;;;;;28.35;16.70;;;13.90;99.90;;;;;;5020357;28;20056;-73
2022/10/12 08:16:30;;;;;;;23.33;15.00;;;14.10;99.90;;;;;;5000803;28;20439;-73
2022/10/12 08:18:59;;;;;;;25.08;15.50;;;14.20;99.90;;;;;;5026108;28;20049;-73
2022/10/12 08:21:26;;;;;;;20.15;14.15;;;14.30;99.90;;;;;;5042010;28;20049;-73
2022/10/12 08:23:54;;;;;;;25.42;14.32;;;14.40;99.90;;;;;;5029477;28;20467;-73
2022/10/12 08:26:21;;;;;;;21.15;14.75;;;14.40;99.90;;;;;;5009887;28;20049;-73
2022/10/12 08:28:48;;;;;;;28.27;14.77;;;14.40;99.90;;;;;;5024246;28;20502;-72
2022/10/12 08:31:16;;;;;;;23.67;15.10;;;14.50;99.90;;;;;;5029916;28;20476;-72
2022/10/12 08:33:44;;;;;;;23.00;15.18;;;14.60;99.90;;;;;;5028437;28;20052;-73
2022/10/12 08:36:12;;;;;;;21.55;15.20;;;14.60;99.90;;;;;;5030015;28;20604;-73
2022/10/12 08:38:39;;;;;;;25.17;15.85;;;14.70;99.90;;;;;;5011413;28;20068;-72
2022/10/12 08:41:22;;;;;;;25.88;15.13;;;14.80;99.90;;;;;;5029863;28;20051;-72
2022/10/12 08:44:17;;;;;;;22.80;15.00;;;14.90;99.90;;;;;;5027427;28;20511;-73
2022/10/12 08:46:45;;;;;;;20.63;14.77;;;15.00;99.90;;;;;;5027585;28;20420;-72
2022/10/12 08:49:17;;;;;;;20.02;13.85;;;15.00;99.90;;;;;;5027247;28;20525;-73
2022/10/12 08:51:48;;;;;;;27.33;15.63;;;15.10;99.90;;;;;;5027157;28;20057;-72
2022/10/12 08:54:22;;;;;;;26.40;16.02;;;15.20;99.90;;;;;;5010900;28;20049;-73
2022/10/12 08:56:53;;;;;;;27.13;18.35;;;15.20;99.90;;;;;;5029076;28;20373;-73
2022/10/12 08:59:20;;;;;;;26.25;15.60;;;15.20;99.90;;;;;;5026467;28;20432;-73
2022/10/12 09:02:02;;;;;;;34.63;16.05;;;15.10;99.90;;;;;;5028589;28;20053;-72
2022/10/12 09:04:46;;;;;;;23.75;15.65;;;15.10;99.90;;;;;;5028209;28;20037;-72
2022/10/12 09:07:30;;;;;;;26.30;16.50;;;15.30;99.90;;;;;;5021823;28;20048;-73
2022/10/12 09:10:15;;;;;;;24.75;15.55;;;15.50;99.90;;;;;;5028628;28;20049;-73
2022/10/12 09:12:48;;;;;;;28.27;16.60;;;15.50;99.90;;;;;;5028032;28;20056;-72
2022/10/12 09:15:20;;;;;;;28.08;15.50;;;15.60;99.90;;;;;;5015958;28;20049;-72
2022/10/12 09:17:54;;;;;;;27.45;16.45;;;15.70;99.90;;;;;;5028914;28;20072;-75
2022/10/12 09:20:27;;;;;;;27.38;15.60;;;15.80;99.90;;;;;;5025738;28;20091;-73
2022/10/12 09:23:14;;;;;;;28.45;16.42;;;15.80;99.90;;;;;;5023998;28;20239;-73
2022/10/12 09:25:42;;;;;;;28.95;16.45;;;16.00;99.90;;;;;;5006096;28;20071;-74
2022/10/12 09:28:18;;;;;;;24.23;16.00;;;16.10;99.90;;;;;;5020803;28;20041;-73
2022/10/12 09:31:11;;;;;;;21.00;14.70;;;16.30;99.90;;;;;;5003868;28;20105;-73
2022/10/12 09:33:52;;;;;;;22.83;15.13;;;16.30;99.90;;;;;;5013122;28;20076;-72
2022/10/12 09:36:21;;;;;;;26.30;16.58;;;16.50;99.90;;;;;;5018768;28;20053;-72
2022/10/12 09:38:49;;;;;;;25.33;16.33;;;16.70;99.90;;;;;;5020493;28;20415;-72
2022/10/12 09:41:28;;;;;;;23.77;16.63;;;16.80;99.90;;;;;;5006512;28;20483;-72
2022/10/12 09:43:58;;;;;;;26.25;16.67;;;16.80;99.90;;;;;;5023078;28;20421;-72
2022/10/12 09:46:57;;;;;;;26.88;17.90;;;16.70;99.90;;;;;;5024763;28;20496;-73
2022/10/12 09:49:41;;;;;;;26.75;16.88;;;16.60;99.90;;;;;;5024126;28;20041;-73
2022/10/12 09:52:09;;;;;;;32.15;17.48;;;16.60;99.90;;;;;;5024111;28;20524;-73
2022/10/12 09:54:43;;;;;;;31.02;17.33;;;16.80;99.90;;;;;;5017876;28;20516;-74
2022/10/12 09:57:38;;;;;;;28.63;17.67;;;16.90;99.90;;;;;;5025695;28;20407;-72
2022/10/12 10:00:29;;;;;;;31.15;17.90;;;17.00;99.90;;;;;;5026465;28;20477;-72
2022/10/12 10:02:57;;;;;;;26.23;17.75;;;17.20;99.90;;;;;;5025362;28;20132;-73
2022/10/12 10:05:33;;;;;;;26.20;16.48;;;17.30;99.90;;;;;;5028495;28;20487;-72
2022/10/12 10:08:20;;;;;;;26.80;17.42;;;17.30;99.90;;;;;;5017215;28;20450;-73
2022/10/12 10:10:54;;;;;;;26.50;16.10;;;17.40;99.90;;;;;;5025340;28;20429;-72
2022/10/12 10:13:25;;;;;;;33.72;18.05;;;17.60;99.90;;;;;;5030587;28;20454;-72
2022/10/12 10:16:12;;;;;;;24.58;16.27;;;17.80;99.90;;;;;;5023240;28;20072;-72
2022/10/12 10:18:53;;;;;;;28.60;16.50;;;18.20;99.90;;;;;;5035670;28;20053;-72
2022/10/12 10:21:33;;;;;;;24.67;15.50;;;18.40;99.90;;;;;;5041011;28;20038;-72
2022/10/12 10:24:02;;;;;;;23.27;15.65;;;18.20;99.90;;;;;;5028546;28;20052;-72
2022/10/12 10:26:55;;;;;;;24.67;15.82;;;18.20;99.90;;;;;;5021997;28;20041;-73
2022/10/12 10:29:31;;;;;;;27.00;17.25;;;18.20;99.90;;;;;;5018150;28;20048;-73
2022/10/12 10:32:11;;;;;;;30.38;17.23;;;18.10;99.90;;;;;;5029869;28;20046;-72
2022/10/12 10:34:41;;;;;;;27.15;17.02;;;17.80;99.90;;;;;;5027966;28;20128;-72
2022/10/12 10:37:19;;;;;;;24.88;17.27;;;18.10;99.90;;;;;;5037891;28;20043;-72
2022/10/12 10:39:53;;;;;;;25.23;15.57;;;18.30;99.90;;;;;;5025926;28;20057;-72
2022/10/12 10:42:30;;;;;;;26.85;17.13;;;18.50;99.90;;;;;;5007632;28;20120;-72
2022/10/12 10:45:05;;;;;;;24.60;17.10;;;18.70;99.90;;;;;;5028855;28;20466;-72
2022/10/12 10:47:42;;;;;;;24.05;16.23;;;18.80;99.90;;;;;;5023305;28;20054;-72
2022/10/12 10:50:31;;;;;;;22.27;15.82;;;19.50;99.90;;;;;;5013124;28;20050;-72
2022/10/12 10:53:01;;;;;;;22.95;16.38;;;20.10;99.90;;;;;;5017741;28;20507;-72
2022/10/12 10:55:43;;;;;;;26.05;16.50;;;20.70;99.90;;;;;;5019422;28;20049;-73
2022/10/12 10:58:41;;;;;;;28.42;16.58;;;20.70;99.90;;;;;;5015649;28;20516;-72
2022/10/12 11:01:34;;;;;;;29.30;16.52;;;20.60;99.90;;;;;;5016946;28;20064;-72
2022/10/12 11:04:13;;;;;;;24.75;15.32;;;20.40;99.90;;;;;;5027479;28;20072;-72
2022/10/12 11:06:43;;;;;;;22.90;16.48;;;20.20;99.90;;;;;;5029038;28;20088;-72
2022/10/12 11:09:14;;;;;;;21.65;15.80;;;20.20;99.90;;;;;;5022265;28;20503;-72
2022/10/12 11:11:43;;;;;;;22.40;14.88;;;19.60;99.90;;;;;;5028600;28;20124;-72
2022/10/12 11:14:15;;;;;;;22.05;14.43;;;19.90;99.90;;;;;;5024802;28;20108;-72
2022/10/12 11:16:57;;;;;;;20.63;14.80;;;20.10;99.90;;;;;;5026521;28;20482;-73
2022/10/12 11:19:27;;;;;;;;;;;20.10;99.90;;;;;;5029717;28;20053;-72
2022/10/12 11:22:20;;;;;;;18.90;13.73;;;20.50;99.90;;;;;;5025392;28;20024;-72
2022/10/12 11:25:09;;;;;;;19.90;15.60;;;20.70;99.90;;;;;;5023488;28;20041;-72
2022/10/12 11:27:39;;;;;;;25.75;15.38;;;20.50;99.90;;;;;;5034317;28;20144;-72
2022/10/12 11:30:22;;;;;;;21.33;14.30;;;20.20;99.90;;;;;;5026503;28;20391;-72
2022/10/12 11:33:12;;;;;;;19.77;15.02;;;20.30;99.90;;;;;;5008058;28;20675;-71
2022/10/12 11:35:43;;;;;;;21.00;15.18;;;20.50;99.90;;;;;;5025284;28;20037;-72
2022/10/12 11:38:24;;;;;;;20.27;15.40;;;20.60;99.90;;;;;;5027532;28;20795;-72
2022/10/12 11:41:02;;;;;;;28.60;16.50;;;20.60;99.90;;;;;;5026933;28;20089;-73
2022/10/12 11:44:01;;;;;;;22.70;14.43;;;20.40;99.90;;;;;;5028476;28;20038;-73
2022/10/12 11:46:40;;;;;;;18.80;13.45;;;20.50;99.90;;;;;;5028717;28;20045;-73
2022/10/12 11:49:25;;;;;;;21.67;14.40;;;20.60;99.90;;;;;;5026111;28;20565;-73
2022/10/12 11:51:57;;;;;;;22.67;14.35;;;20.70;99.90;;;;;;5015613;28;20140;-73
2022/10/12 11:54:50;;;;;;;22.65;14.93;;;20.60;99.90;;;;;;5025016;28;20041;-72
2022/10/12 11:57:25;;;;;;;22.27;14.48;;;20.50;99.90;;;;;;5028607;28;20053;-73
2022/10/12 11:59:58;;;;;;;18.08;13.52;;;20.50;99.90;;;;;;5026938;28;20456;-72
2022/10/12 12:02:38;;;;;;;23.67;14.60;;;20.60;99.90;;;;;;5023297;28;20053;-72
2022/10/12 12:05:11;;;;;;;20.20;14.45;;;20.10;99.90;;;;;;5009031;28;20155;-73
2022/10/12 12:07:54;;;;;;;20.33;14.40;;;20.20;99.90;;;;;;5027547;28;20042;-72
2022/10/12 12:10:29;;;;;;;19.02;15.50;;;20.30;99.90;;;;;;5021279;28;20118;-72
2022/10/12 12:13:17;;;;;;;21.13;15.05;;;20.10;99.90;;;;;;5024137;28;20080;-72
2022/10/12 12:15:48;;;;;;;23.77;14.95;;;20.30;99.90;;;;;;5024644;28;20065;-71
2022/10/12 12:18:32;;;;;;;23.75;15.52;;;20.30;99.90;;;;;;5025977;28;20041;-72
2022/10/12 12:21:07;;;;;;;20.65;15.30;;;20.30;99.90;;;;;;5025932;28;20037;-72
2022/10/12 12:23:52;;;;;;;22.60;15.80;;;20.70;99.90;;;;;;5015658;28;20054;-73
2022/10/12 12:26:25;;;;;;;22.45;15.00;;;21.70;99.90;;;;;;5012573;28;20136;-76
2022/10/12 12:29:30;;;;;;;23.48;15.77;;;23.00;99.90;;;;;;5023258;28;20053;-75
2022/10/12 12:31:59;;;;;;;20.48;14.20;;;23.10;99.90;;;;;;5018313;28;20494;-73
2022/10/12 12:34:27;;;;;;;24.98;15.23;;;23.50;99.90;;;;;;5022751;28;20041;-76
2022/10/12 12:36:56;;;;;;;24.25;15.45;;;23.50;99.90;;;;;;5000518;28;20171;-75
2022/10/12 12:39:31;;;;;;;20.70;14.55;;;23.00;99.90;;;;;;5017339;28;20776;-75
2022/10/12 12:42:01;;;;;;;18.40;14.48;;;22.40;99.90;;;;;;5022220;28;20056;-74
2022/10/12 12:44:41;;;;;;;19.83;14.43;;;21.90;99.90;;;;;;5025572;28;20103;-76
2022/10/12 12:47:09;;;;;;;22.67;15.70;;;21.50;99.90;;;;;;5024423;28;20475;-74
2022/10/12 12:50:35;;;;;;;21.98;15.20;;;21.20;99.90;;;;;;5026019;28;20041;-73
2022/10/12 12:53:06;;;;;;;21.20;15.07;;;20.70;99.90;;;;;;5009994;28;20492;-73
2022/10/12 12:55:54;;;;;;;17.42;13.63;;;20.60;99.90;;;;;;5020346;28;20469;-72